Bookmark and Share
Track history (hours):
 

Frances Anne

More information available from US FCC via Universal Licensing System and Coast Guard Vessel Documentation Center.

Last reported at 2014-Apr-18 14:23 UTC. Time now 2014-Apr-18 16:19 UTC.
Position N 39°46' W 074°07'.

Type: Fishing. MMSI: 367406910.

NotesDate/timePositionNaut miles runAvg speedWind from/ knotsBaromVisibWave heightAir tempDewpointWater temp
2014-Apr-18 14:23N 39°46' W 074°07'0 0.0
2014-Apr-18 13:26N 39°46' W 074°07'0 0.0
2014-Apr-18 12:26N 39°46' W 074°07'0 0.0
2014-Apr-18 11:32N 39°46' W 074°07'0 0.0
2014-Apr-18 10:32N 39°46' W 074°07'0 0.0
2014-Apr-18 09:29N 39°46' W 074°07'0 0.0
2014-Apr-18 08:26N 39°46' W 074°07'0 0.0
2014-Apr-18 07:29N 39°46' W 074°07'0 0.0
2014-Apr-18 06:29N 39°46' W 074°07'0 0.0
2014-Apr-18 05:32N 39°46' W 074°07'0 0.0
2014-Apr-18 04:32N 39°46' W 074°07'0 0.0
2014-Apr-18 03:29N 39°46' W 074°07'0 0.0
2014-Apr-18 02:29N 39°46' W 074°07'0 0.0
2014-Apr-18 01:32N 39°46' W 074°07'0 0.0
2014-Apr-17 23:29N 39°46' W 074°07'0 0.0
2014-Apr-17 22:32N 39°46' W 074°07'0 0.0
2014-Apr-17 21:29N 39°46' W 074°07'0 0.0
2014-Apr-17 20:29N 39°46' W 074°07'0 0.0
2014-Apr-17 19:26N 39°46' W 074°07'0 0.0
2014-Apr-17 18:29N 39°46' W 074°07'0 0.0
2014-Apr-17 17:23N 39°46' W 074°07'0 0.0
2014-Apr-17 16:17N 39°46' W 074°07'0 0.0
2014-Apr-17 15:23N 39°46' W 074°07'0 0.0
2014-Apr-17 14:20N 39°46' W 074°06'0 0.0
2014-Apr-17 13:29N 39°46' W 074°07'0 0.0
2014-Apr-17 12:26N 39°46' W 074°07'0 0.0
2014-Apr-17 11:20N 39°46' W 074°06'0 0.0
2014-Apr-17 10:32N 39°46' W 074°07'0 0.0
2014-Apr-16 21:11N 39°46' W 074°07'0 0.0
2014-Apr-16 20:32N 39°46' W 074°07'0 0.0
2014-Apr-16 19:26N 39°46' W 074°07'0 0.0
2014-Apr-16 17:17N 39°46' W 074°07'0 0.0
2014-Apr-16 16:29N 39°46' W 074°07'0 0.1
2014-Apr-16 15:29N 39°46' W 074°07'0 0.0
2014-Apr-16 13:26N 39°46' W 074°07'0 0.0
2014-Apr-16 12:29N 39°46' W 074°07'0 0.0
2014-Apr-16 11:23N 39°46' W 074°07'0 0.0
2014-Apr-16 10:29N 39°46' W 074°07'0 0.0
2014-Apr-16 09:17N 39°46' W 074°07'0 0.0
2014-Apr-16 08:23N 39°46' W 074°07'0 0.0
2014-Apr-16 07:32N 39°46' W 074°07'0 0.0
2014-Apr-16 06:29N 39°46' W 074°07'0 0.0
2014-Apr-16 05:20N 39°46' W 074°07'0 0.0
2014-Apr-16 04:29N 39°46' W 074°07'0 0.0
2014-Apr-16 03:29N 39°46' W 074°07'0 0.0
2014-Apr-16 02:29N 39°46' W 074°07'0 0.0
2014-Apr-16 01:20N 39°46' W 074°07'0 0.0
2014-Apr-16 00:20N 39°46' W 074°07'0 0.0
2014-Apr-15 23:32N 39°46' W 074°07'0 0.0
2014-Apr-15 22:14N 39°46' W 074°07'0 0.0
2014-Apr-15 21:33N 39°46' W 074°07'5 5.3
2014-Apr-15 20:33N 39°48' W 074°00'78 6.0
2014-Apr-15 07:32N 39°57' W 072°19'13 6.8
2014-Apr-15 05:33N 39°59' W 072°02'14 7.1
2014-Apr-15 03:30N 39°60' W 071°43'7 7.0
2014-Apr-15 02:34N 40°01' W 071°34'7 7.0
2014-Apr-15 01:32N 40°02' W 071°25'14 7.0
2014-Apr-14 23:34N 40°04' W 071°07'3 3.3
2014-Apr-14 22:33N 40°04' W 071°03'3 1.4
2014-Apr-14 20:33N 40°02' W 071°06'0 0.3
2014-Apr-14 19:32N 40°02' W 071°05'3 2.9
2014-Apr-14 18:31N 40°03' W 071°02'4 4.3
2014-Apr-14 17:31N 40°05' W 071°07'2 1.6
2014-Apr-14 16:34N 40°04' W 071°09'1 0.7
2014-Apr-14 15:30N 40°04' W 071°08'3 3.4
2014-Apr-14 14:30N 40°04' W 071°04'0 0.3
2014-Apr-14 13:33N 40°04' W 071°04'2 1.2
2014-Apr-14 11:33N 40°04' W 071°07'1 0.8
2014-Apr-14 10:33N 40°04' W 071°06'1 0.6
2014-Apr-14 09:32N 40°05' W 071°07'3 2.7
2014-Apr-14 08:33N 40°07' W 071°04'0 0.5
2014-Apr-14 07:33N 40°06' W 071°04'1 0.6
2014-Apr-14 06:33N 40°06' W 071°04'1 0.7
2014-Apr-14 05:33N 40°05' W 071°03'33 4.0
2014-Apr-13 21:14N 40°02' W 070°20'1 1.0
2014-Apr-13 20:32N 40°02' W 070°19'1 0.9
2014-Apr-13 19:30N 40°03' W 070°18'1 0.9
2014-Apr-13 18:07N 40°03' W 070°20'1 1.0
2014-Apr-13 17:24N 40°03' W 070°19'0 0.4
2014-Apr-13 16:33N 40°03' W 070°20'0 0.1
2014-Apr-13 15:33N 40°03' W 070°20'0 0.2
2014-Apr-13 14:33N 40°02' W 070°19'1 1.1
2014-Apr-13 13:28N 40°02' W 070°21'2 1.5
2014-Apr-13 12:28N 40°02' W 070°19'2 1.4
2014-Apr-13 11:17N 40°02' W 070°21'0 0.2
2014-Apr-13 10:32N 40°03' W 070°21'2 2.3
2014-Apr-13 09:33N 40°02' W 070°24'1 0.8
2014-Apr-13 08:33N 40°02' W 070°23'1 0.7
2014-Apr-13 07:33N 40°03' W 070°22'1 0.6
2014-Apr-13 06:33N 40°03' W 070°22'0 0.4
2014-Apr-13 05:33N 40°03' W 070°21'0 0.3
2014-Apr-13 04:33N 40°03' W 070°21'1 0.8
2014-Apr-13 03:13N 40°02' W 070°21'0 0.0
2014-Apr-12 22:21N 40°02' W 070°21'2 2.6
2014-Apr-12 21:33N 40°02' W 070°18'8 0.4
2014-Apr-11 22:33N 40°04' W 070°29'2 1.6
2014-Apr-11 21:33N 40°05' W 070°27'2 2.2
2014-Apr-11 20:33N 40°04' W 070°29'1 0.1
2014-Apr-11 06:11N 40°03' W 070°29'0 0.7
2014-Apr-11 05:33N 40°03' W 070°29'1 0.7
2014-Apr-11 04:32N 40°02' W 070°28'2 1.1
2014-Apr-11 02:27N 40°04' W 070°31'1 0.8
2014-Apr-11 01:18N 40°04' W 070°30'2 2.8
2014-Apr-11 00:33N 40°04' W 070°27'3 3.2
2014-Apr-10 23:32N 40°02' W 070°24'3 3.3
2014-Apr-10 22:33N 40°02' W 070°20'2 1.0
2014-Apr-10 20:25N 40°03' W 070°23'18 0.4
2014-Apr-09 00:27N 40°08' W 070°45'1 0.3
2014-Apr-08 22:14N 40°08' W 070°46'1 1.4
2014-Apr-08 21:29N 40°07' W 070°45'1 1.5
2014-Apr-08 20:31N 40°08' W 070°46'0 0.2
2014-Apr-08 19:16N 40°08' W 070°46'2 3.2
2014-Apr-08 18:32N 40°07' W 070°43'2 2.4
2014-Apr-08 17:31N 40°09' W 070°45'  

Dump ship's entire track history

sailing weather and tide predictions

Frances Anne — WDE8555 — position and weather